createdAt,value
2022-10-04T00:01:11.862Z,17.16
2022-10-04T00:04:20.171Z,17.32
2022-10-04T00:07:26.558Z,17.30
2022-10-04T00:10:34.878Z,17.19
2022-10-04T00:13:38.648Z,17.10
2022-10-04T00:16:44.284Z,17.14
2022-10-04T00:19:49.984Z,17.22
2022-10-04T00:23:26.401Z,17.06
2022-10-04T00:26:28.704Z,17.08
2022-10-04T00:29:34.922Z,16.93
2022-10-04T00:32:40.775Z,17.10
2022-10-04T00:35:48.942Z,17.07
2022-10-04T00:39:05.037Z,17.11
2022-10-04T00:42:17.965Z,17.15
2022-10-04T00:45:36.900Z,17.10
2022-10-04T00:48:47.886Z,16.95
2022-10-04T00:52:15.017Z,17.14
2022-10-04T00:55:44.945Z,17.04
2022-10-04T00:59:29.165Z,17.13
2022-10-04T01:02:46.714Z,16.95
2022-10-04T01:05:55.993Z,16.94
2022-10-04T01:09:05.857Z,16.86
2022-10-04T01:12:19.166Z,17.09
2022-10-04T01:15:42.997Z,16.99
2022-10-04T01:18:46.928Z,16.88
2022-10-04T01:22:15.340Z,16.90
2022-10-04T01:25:52.410Z,16.92
2022-10-04T01:28:56.612Z,16.69
2022-10-04T01:32:00.575Z,16.84
2022-10-04T01:35:07.572Z,16.95
2022-10-04T01:38:13.334Z,16.92
2022-10-04T01:41:20.457Z,16.93
2022-10-04T01:44:37.433Z,16.94
2022-10-04T01:47:49.533Z,16.98
2022-10-04T01:51:05.062Z,16.95
2022-10-04T01:54:16.075Z,16.93
2022-10-04T01:57:34.543Z,16.97
2022-10-04T02:00:49.861Z,17.05
2022-10-04T02:04:02.179Z,17.06
2022-10-04T02:07:12.748Z,16.94
2022-10-04T02:10:21.108Z,16.91
2022-10-04T02:13:30.310Z,16.93
2022-10-04T02:16:38.662Z,16.80
2022-10-04T02:19:43.508Z,16.86
2022-10-04T02:22:49.726Z,16.91
2022-10-04T02:25:52.880Z,16.89
2022-10-04T02:28:55.048Z,16.88
2022-10-04T02:32:16.253Z,16.82
2022-10-04T02:35:20.111Z,16.90
2022-10-04T02:38:32.282Z,16.96
2022-10-04T02:41:49.427Z,16.98
2022-10-04T02:45:00.483Z,17.00
2022-10-04T02:48:14.445Z,16.86
2022-10-04T02:51:33.621Z,16.96
2022-10-04T02:54:54.726Z,17.04
2022-10-04T02:57:58.666Z,16.89
2022-10-04T03:01:02.079Z,16.92
2022-10-04T03:04:04.774Z,16.73
2022-10-04T03:07:09.570Z,16.81
2022-10-04T03:10:13.721Z,16.77
2022-10-04T03:13:18.115Z,16.81
2022-10-04T03:16:21.948Z,16.80
2022-10-04T03:19:27.454Z,16.71
2022-10-04T03:22:29.565Z,16.70
2022-10-04T03:25:45.471Z,16.62
2022-10-04T03:28:48.702Z,16.67
2022-10-04T03:31:57.605Z,16.78
2022-10-04T03:35:03.174Z,16.67
2022-10-04T03:38:09.285Z,16.75
2022-10-04T03:41:14.015Z,16.79
2022-10-04T03:44:18.979Z,16.77
2022-10-04T03:47:26.899Z,16.65
2022-10-04T03:50:34.389Z,16.76
2022-10-04T03:53:43.624Z,16.72
2022-10-04T03:56:47.495Z,16.61
2022-10-04T03:59:51.259Z,16.57
2022-10-04T04:02:59.908Z,16.69
2022-10-04T04:06:09.873Z,16.67
2022-10-04T04:09:39.453Z,16.81
2022-10-04T04:12:48.010Z,16.93
2022-10-04T04:15:51.538Z,16.97
2022-10-04T04:18:58.953Z,16.86
2022-10-04T04:22:01.127Z,16.85
2022-10-04T04:25:08.457Z,16.94
2022-10-04T04:28:29.037Z,16.95
2022-10-04T04:31:51.043Z,17.01
2022-10-04T04:34:54.176Z,16.98
2022-10-04T04:38:05.139Z,16.81
2022-10-04T04:41:10.697Z,16.95
2022-10-04T04:44:18.358Z,16.99
2022-10-04T04:47:26.583Z,17.52
2022-10-04T04:50:41.299Z,17.77
2022-10-04T04:53:43.602Z,17.98
2022-10-04T04:56:49.429Z,18.21
2022-10-04T04:59:59.301Z,18.49
2022-10-04T05:03:03.776Z,18.69
2022-10-04T05:06:24.018Z,18.76
2022-10-04T05:09:28.922Z,18.84
2022-10-04T05:12:32.665Z,18.86
2022-10-04T05:15:41.081Z,18.89
2022-10-04T05:18:44.091Z,18.77
2022-10-04T05:21:49.688Z,18.91
2022-10-04T05:24:59.653Z,18.87
2022-10-04T05:28:02.413Z,18.80
2022-10-04T05:31:59.647Z,18.84
2022-10-04T05:35:04.353Z,19.01
2022-10-04T05:38:15.633Z,19.04
2022-10-04T05:41:24.213Z,19.31
2022-10-04T05:44:37.649Z,19.23
2022-10-04T05:47:41.144Z,19.12
2022-10-04T05:50:44.368Z,19.12
2022-10-04T05:53:47.215Z,19.13
2022-10-04T05:57:02.049Z,19.10
2022-10-04T06:00:13.817Z,19.04
2022-10-04T06:03:49.432Z,18.96
2022-10-04T06:06:58.403Z,19.11
2022-10-04T06:10:39.744Z,19.20
2022-10-04T06:14:09.322Z,19.24
2022-10-04T06:17:30.673Z,19.34
2022-10-04T06:20:44.828Z,19.44
2022-10-04T06:24:14.690Z,19.54
2022-10-04T06:27:45.628Z,19.87
2022-10-04T06:30:56.691Z,20.07
2022-10-04T06:34:19.903Z,20.16
2022-10-04T06:37:31.019Z,20.22
2022-10-04T06:40:48.705Z,20.26
2022-10-04T06:44:04.689Z,20.32
2022-10-04T06:47:20.158Z,20.45
2022-10-04T06:50:38.637Z,20.51
2022-10-04T06:54:02.295Z,20.52
2022-10-04T06:57:23.685Z,20.49
2022-10-04T07:00:35.265Z,20.62
2022-10-04T07:03:54.670Z,20.69
2022-10-04T07:07:25.478Z,20.74
2022-10-04T07:10:33.592Z,20.66
2022-10-04T07:13:49.018Z,20.46
2022-10-04T07:16:56.518Z,20.31
2022-10-04T07:20:01.897Z,20.22
2022-10-04T07:23:34.553Z,20.14
2022-10-04T07:26:47.491Z,20.11
2022-10-04T07:29:55.470Z,20.12
2022-10-04T07:33:01.555Z,19.97
2022-10-04T07:36:17.590Z,20.02
2022-10-04T07:39:33.641Z,20.04
2022-10-04T07:42:44.512Z,20.01
2022-10-04T07:45:49.451Z,19.97
2022-10-04T07:48:55.563Z,19.92
2022-10-04T07:52:16.683Z,19.87
2022-10-04T07:55:28.856Z,19.76
2022-10-04T08:01:19.624Z,19.51
2022-10-04T08:04:46.527Z,19.53
2022-10-04T08:08:16.823Z,19.76
2022-10-04T08:11:44.700Z,20.00
2022-10-04T08:15:17.243Z,20.15
2022-10-04T08:18:34.639Z,20.31
2022-10-04T08:21:56.975Z,20.41
2022-10-04T08:25:26.932Z,20.52
2022-10-04T08:29:19.925Z,20.44
2022-10-04T08:32:24.853Z,20.41
2022-10-04T08:35:36.516Z,20.45
2022-10-04T08:38:38.718Z,20.55
2022-10-04T08:42:24.819Z,20.64
2022-10-04T08:45:58.331Z,20.70
2022-10-04T08:49:14.428Z,20.63
2022-10-04T08:52:41.043Z,20.63
2022-10-04T08:56:18.396Z,20.64
2022-10-04T08:59:46.727Z,20.85
2022-10-04T09:03:38.390Z,20.88
2022-10-04T09:07:03.578Z,20.77
2022-10-04T09:10:36.437Z,20.90
2022-10-04T09:13:57.623Z,20.91
2022-10-04T09:17:21.997Z,20.94
2022-10-04T09:20:53.684Z,20.62
2022-10-04T09:24:14.398Z,20.59
2022-10-04T09:27:54.630Z,20.32
2022-10-04T09:31:15.559Z,20.33
2022-10-04T09:34:55.028Z,20.06
2022-10-04T09:38:25.199Z,19.92
2022-10-04T09:41:52.534Z,19.93
2022-10-04T09:45:20.480Z,20.11
2022-10-04T09:48:37.770Z,19.97
2022-10-04T09:52:02.859Z,19.97
2022-10-04T09:55:42.798Z,19.94
2022-10-04T09:58:58.635Z,19.93
2022-10-04T10:02:26.703Z,19.93
2022-10-04T10:05:49.934Z,20.00
2022-10-04T10:09:10.092Z,20.20
2022-10-04T10:12:48.129Z,20.25
2022-10-04T10:16:08.732Z,20.42
2022-10-04T10:19:35.099Z,20.54
2022-10-04T10:22:55.195Z,20.58
2022-10-04T10:26:24.173Z,20.40
2022-10-04T10:29:55.455Z,20.12
2022-10-04T10:33:26.932Z,20.20
2022-10-04T10:36:34.856Z,20.13
2022-10-04T10:40:16.897Z,20.16
2022-10-04T10:43:41.544Z,20.13
2022-10-04T10:47:11.552Z,20.10
2022-10-04T10:51:04.452Z,20.16
2022-10-04T10:54:25.448Z,20.10
2022-10-04T10:57:45.722Z,20.15
2022-10-04T11:01:31.140Z,20.15
2022-10-04T11:04:38.663Z,20.14
2022-10-04T11:07:56.412Z,20.09
2022-10-04T11:11:15.068Z,20.02
2022-10-04T11:15:08.252Z,19.99
2022-10-04T11:18:34.731Z,20.12
2022-10-04T11:21:51.465Z,20.26
2022-10-04T11:25:08.490Z,20.73
2022-10-04T11:28:17.016Z,21.10
2022-10-04T11:31:47.075Z,21.31
2022-10-04T11:35:12.135Z,21.67
2022-10-04T11:38:31.413Z,21.91
2022-10-04T11:42:41.680Z,22.02
2022-10-04T11:46:16.447Z,22.02
2022-10-04T11:49:21.241Z,21.98
2022-10-04T11:53:03.325Z,22.15
2022-10-04T11:56:29.862Z,22.03
2022-10-04T11:59:40.868Z,21.93
2022-10-04T12:03:10.994Z,22.03
2022-10-04T12:06:50.482Z,21.88
2022-10-04T12:10:04.509Z,21.94
2022-10-04T12:13:34.731Z,21.91
2022-10-04T12:16:49.218Z,21.74
2022-10-04T12:20:34.389Z,21.60
2022-10-04T12:24:03.563Z,21.35
2022-10-04T12:27:28.747Z,21.22
2022-10-04T12:30:34.561Z,21.25
2022-10-04T12:33:54.227Z,21.23
2022-10-04T12:37:18.173Z,21.27
2022-10-04T12:40:26.156Z,21.12
2022-10-04T12:43:46.740Z,21.09
2022-10-04T12:46:49.741Z,21.06
2022-10-04T12:49:57.935Z,21.06
2022-10-04T12:53:14.800Z,21.10
2022-10-04T12:56:29.416Z,21.19
2022-10-04T12:59:37.074Z,21.14
2022-10-04T13:03:19.183Z,21.01
2022-10-04T13:06:55.791Z,20.73
2022-10-04T13:10:25.096Z,20.77
2022-10-04T13:13:47.180Z,20.71
2022-10-04T13:20:23.137Z,20.73
2022-10-04T13:23:43.412Z,20.67
2022-10-04T13:27:03.619Z,20.56
2022-10-04T13:30:26.503Z,20.63
2022-10-04T13:33:46.375Z,20.53
2022-10-04T13:37:15.133Z,20.50
2022-10-04T13:40:30.291Z,20.55
2022-10-04T13:44:01.655Z,20.51
2022-10-04T13:47:25.278Z,20.50
2022-10-04T13:50:43.662Z,20.50
2022-10-04T13:54:36.895Z,20.45
2022-10-04T13:58:11.186Z,20.29
2022-10-04T14:01:41.474Z,20.29
2022-10-04T14:05:16.095Z,20.33
2022-10-04T14:08:50.850Z,20.32
2022-10-04T14:12:16.637Z,20.26
2022-10-04T14:15:33.527Z,20.20
2022-10-04T14:19:05.293Z,20.08
2022-10-04T14:22:26.295Z,20.14
2022-10-04T14:25:43.176Z,19.98
2022-10-04T14:28:58.370Z,20.00
2022-10-04T14:32:20.933Z,20.04
2022-10-04T14:35:48.830Z,20.00
2022-10-04T14:39:03.260Z,19.93
2022-10-04T14:42:48.740Z,19.81
2022-10-04T14:46:13.758Z,19.81
2022-10-04T14:49:36.170Z,19.60
2022-10-04T14:53:01.346Z,19.76
2022-10-04T14:56:17.186Z,19.68
2022-10-04T14:59:31.742Z,19.59
2022-10-04T15:02:33.670Z,19.61
2022-10-04T15:05:54.962Z,19.61
2022-10-04T15:09:12.042Z,19.56
2022-10-04T15:12:58.617Z,19.53
2022-10-04T15:16:28.697Z,19.52
2022-10-04T15:19:49.907Z,19.53
2022-10-04T15:23:08.098Z,19.46
2022-10-04T15:26:19.018Z,19.40
2022-10-04T15:29:31.926Z,19.32
2022-10-04T15:32:45.888Z,19.24
2022-10-04T15:36:39.845Z,19.19
2022-10-04T15:40:28.496Z,19.10
2022-10-04T15:43:32.256Z,19.01
2022-10-04T15:46:45.149Z,19.03
2022-10-04T15:49:57.366Z,18.99
2022-10-04T15:53:39.355Z,18.94
2022-10-04T15:56:41.795Z,18.97
2022-10-04T15:59:55.744Z,18.98
2022-10-04T16:03:18.512Z,18.95
2022-10-04T16:06:26.478Z,18.95
2022-10-04T16:09:49.912Z,18.94
2022-10-04T16:13:14.627Z,18.97
2022-10-04T16:16:21.580Z,18.99
2022-10-04T16:19:48.121Z,18.94
2022-10-04T16:23:28.598Z,18.96
2022-10-04T16:26:30.495Z,18.88
2022-10-04T16:30:29.430Z,18.85
2022-10-04T16:33:51.654Z,18.76
2022-10-04T16:37:26.299Z,18.80
2022-10-04T16:40:38.416Z,18.74
2022-10-04T16:43:54.405Z,18.71
2022-10-04T16:47:02.160Z,18.91
2022-10-04T16:50:06.811Z,18.88
2022-10-04T16:53:27.118Z,18.94
2022-10-04T16:56:34.934Z,18.87
2022-10-04T16:59:37.105Z,18.82
2022-10-04T17:03:01.321Z,18.79
2022-10-04T17:06:14.341Z,18.77
2022-10-04T17:09:27.616Z,18.67
2022-10-04T17:13:07.256Z,18.73
2022-10-04T17:16:36.546Z,18.59
2022-10-04T17:19:54.253Z,18.58
2022-10-04T17:23:18.074Z,18.56
2022-10-04T17:26:30.005Z,18.57
2022-10-04T17:29:58.508Z,18.41
2022-10-04T17:33:18.045Z,18.45
2022-10-04T17:36:28.804Z,18.49
2022-10-04T17:39:33.617Z,18.41
2022-10-04T17:43:03.176Z,18.33
2022-10-04T17:46:28.216Z,18.28
2022-10-04T17:50:06.046Z,18.35
2022-10-04T17:53:42.253Z,18.23
2022-10-04T17:56:59.115Z,18.30
2022-10-04T18:00:10.341Z,18.27
2022-10-04T18:03:19.431Z,18.19
2022-10-04T18:06:43.362Z,18.21
2022-10-04T18:09:49.275Z,18.28
2022-10-04T18:12:56.115Z,18.55
2022-10-04T18:16:14.604Z,18.92
2022-10-04T18:19:49.609Z,19.18
2022-10-04T18:23:14.064Z,19.44
2022-10-04T18:26:18.534Z,19.65
2022-10-04T18:29:36.323Z,19.98
2022-10-04T18:32:38.689Z,20.20
2022-10-04T18:36:09.461Z,20.31
2022-10-04T18:39:11.444Z,20.48
2022-10-04T18:42:39.622Z,20.60
2022-10-04T18:46:23.251Z,20.46
2022-10-04T18:49:30.543Z,20.47
2022-10-04T18:53:00.399Z,20.43
2022-10-04T18:56:08.994Z,20.36
2022-10-04T18:59:50.926Z,20.28
2022-10-04T19:03:04.544Z,20.14
2022-10-04T19:06:15.693Z,20.17
2022-10-04T19:09:26.830Z,20.04
2022-10-04T19:12:54.867Z,19.87
2022-10-04T19:15:57.200Z,19.85
2022-10-04T19:19:27.707Z,19.85
2022-10-04T19:22:30.890Z,19.78
2022-10-04T19:25:35.512Z,19.69
2022-10-04T19:28:39.537Z,19.55
2022-10-04T19:32:19.909Z,19.47
2022-10-04T19:35:27.787Z,19.35
2022-10-04T19:38:55.786Z,19.29
2022-10-04T19:42:00.619Z,19.19
2022-10-04T19:45:16.432Z,19.08
2022-10-04T19:48:25.822Z,19.11
2022-10-04T19:51:45.865Z,19.10
2022-10-04T19:54:56.947Z,19.11
2022-10-04T19:58:16.911Z,19.08
2022-10-04T20:01:23.305Z,19.07
2022-10-04T20:04:38.656Z,19.01
2022-10-04T20:07:41.384Z,18.98
2022-10-04T20:10:44.435Z,18.96
2022-10-04T20:14:09.462Z,18.93
2022-10-04T20:17:30.596Z,18.87
2022-10-04T20:20:41.184Z,18.84
2022-10-04T20:23:48.780Z,18.82
2022-10-04T20:27:01.609Z,18.74
2022-10-04T20:30:14.356Z,18.72
2022-10-04T20:33:46.580Z,18.73
2022-10-04T20:36:51.689Z,18.61
2022-10-04T20:39:56.718Z,18.59
2022-10-04T20:43:14.137Z,18.60
2022-10-04T20:46:24.138Z,18.54
2022-10-04T20:49:27.473Z,18.51
2022-10-04T20:52:31.835Z,18.38
2022-10-04T20:55:37.406Z,18.40
2022-10-04T20:58:40.655Z,18.31
2022-10-04T21:01:45.951Z,18.32
2022-10-04T21:04:52.097Z,18.35
2022-10-04T21:08:23.431Z,18.29
2022-10-04T21:11:44.318Z,18.27
2022-10-04T21:15:02.656Z,18.16
2022-10-04T21:18:11.318Z,18.20
2022-10-04T21:21:20.946Z,18.10
2022-10-04T21:24:40.007Z,18.12
2022-10-04T21:27:44.710Z,18.10
2022-10-04T21:30:46.923Z,18.01
2022-10-04T21:33:51.228Z,18.08
2022-10-04T21:36:53.308Z,18.05
2022-10-04T21:39:56.240Z,18.06
2022-10-04T21:42:58.295Z,17.93
2022-10-04T21:46:00.610Z,18.01
2022-10-04T21:49:04.022Z,18.04
2022-10-04T21:52:06.242Z,17.99
2022-10-04T21:55:10.766Z,18.03
2022-10-04T21:58:13.029Z,18.03
2022-10-04T22:01:15.259Z,17.90
2022-10-04T22:04:17.534Z,17.87
2022-10-04T22:07:19.569Z,17.94
2022-10-04T22:10:21.781Z,17.96
2022-10-04T22:13:24.017Z,17.85
2022-10-04T22:16:26.774Z,17.90
2022-10-04T22:19:28.793Z,17.88
2022-10-04T22:22:34.271Z,17.91
2022-10-04T22:25:40.309Z,17.90
2022-10-04T22:28:45.480Z,17.97
2022-10-04T22:31:51.194Z,18.01
2022-10-04T22:35:01.172Z,18.07
2022-10-04T22:38:08.442Z,18.08
2022-10-04T22:41:14.354Z,18.05
2022-10-04T22:44:18.573Z,18.12
2022-10-04T22:47:20.691Z,18.12
2022-10-04T22:50:27.837Z,18.11
2022-10-04T22:53:29.953Z,18.04
2022-10-04T22:56:32.076Z,18.00
2022-10-04T22:59:40.592Z,18.05
2022-10-04T23:02:43.905Z,18.01
2022-10-04T23:05:45.926Z,17.98
2022-10-04T23:08:47.941Z,17.89
2022-10-04T23:11:50.011Z,17.84
2022-10-04T23:14:52.235Z,17.84
2022-10-04T23:17:55.662Z,17.80
2022-10-04T23:21:00.633Z,17.81
2022-10-04T23:24:17.724Z,17.88
2022-10-04T23:27:20.134Z,17.89
2022-10-04T23:30:22.861Z,17.89
2022-10-04T23:33:24.985Z,17.99
2022-10-04T23:36:27.093Z,17.93
2022-10-04T23:39:32.788Z,17.88
2022-10-04T23:42:36.914Z,17.91
2022-10-04T23:45:42.227Z,17.91
2022-10-04T23:48:44.742Z,17.89
2022-10-04T23:51:48.332Z,17.88
2022-10-04T23:54:52.775Z,17.93
2022-10-04T23:57:54.954Z,17.93
